Solano, NM

3:02 PM MDT on April 21, 2015 (GMT -0600)
Tucumcari Municipal | | Change Station
CLOSE
Current Station
Airport
Location: Tucumcari,
Elevation: 4065 ft
Nearby Weather Stations

Elev 4065 ft 35.18 °N, 103.60 °W | Updated 9 minutes ago

Overcast
Overcast
79 °F
Feels Like 79 °F
N
13
Wind Variable Wind from South
Gusts 22 mph

Today
High -- | Low -- °F
--% Chance of Precip.
Yesterday
High -- | Low -- °F
Precip. -- in
6:16 AM 7:35 PM
Waxing Crescent, 12% visible
Pressure 29.73 in
Visibility 10.0 miles
Clouds Clear
Dew Point 28 °F
Humidity 15%
Rainfall 0.00 in
Snow Depth Not available.
UV 9 out of 12
Pollen 9.40 out of 12
Air Quality Not available.
Flu Activity Local Activity
METAR KTCC 212053Z AUTO 17011G19KT 10SM CLR 26/M02 A2986 RMK AO2 SLP068 T02611022 58030

More Conditions Fewer Conditions

Pressure 29.73 in
Visibility 10.0 miles
Clouds Clear
Dew Point 28 °F
Humidity 15%
Rainfall 0.00 in
Snow Depth Not available.
UV 9 out of 12
Pollen 9.40 out of 12
Air Quality Not available.
Flu Activity Local Activity
METAR KTCC 212053Z AUTO 17011G19KT 10SM CLR 26/M02 A2986 RMK AO2 SLP068 T02611022 58030

More Conditions Fewer Conditions

10-Day Weather Forecast

Almanac

Astronomy

Apr. 21, 2015 Rise Set
Actual Time
Civil Twilight
Nautical Twilight
Astronomical Twilight
Moon
Length of Visible Light
Length of Day
Tomorrow will be .
, % of the Moon is Illuminated

Today's Extremes

State Highs State Lows

Community

WunderPhotos

Upload Photos

1,815,540 photos uploaded!

WunderBlogs® & News

Nearby

Air Quality

  Air Quality AQ Index Pollutant
Not available.

Snow Depth

Station Depth Elevation

Earthquake Activity

City Distance Mag. Time & Date
Minimum magnitude displayed is 2.5.

Coastal Water Temperatures

Place Temperature

Stations

Nearby Weather Stations

Station Location Temp. Windchill Dew Point Humidity Wind Precip. Elev Updated Type